Time;durP1;ratioP1;P1;durP2;ratioP2;P2;SDS_P1;SDS_P2;PMS_P1;PMS_P2;Temp;Humidity;BMP_temperature;BMP_pressure;BME280_temperature;BME280_humidity;BME280_pressure;Samples;Min_cycle;Max_cycle;Signal;HPM_P1;HPM_P2
2022/04/05 12:21:21;;;;;;;2.70;0.90;;;9.00;99.90;;;;;;8522387;27;20377;-67
2022/04/05 12:25:22;;;;;;;2.43;0.77;;;8.60;99.90;;;;;;8486734;27;20217;-62
2022/04/05 12:29:24;;;;;;;0.80;0.30;;;8.70;99.90;;;;;;8504697;27;20191;-66
2022/04/05 12:33:25;;;;;;;2.40;0.73;;;9.00;99.90;;;;;;8521677;27;20198;-68
2022/04/05 12:37:30;;;;;;;2.50;1.20;;;9.10;99.90;;;;;;8499873;27;20262;-67
2022/04/05 12:41:40;;;;;;;1.90;0.57;;;9.10;99.90;;;;;;8505039;27;20198;-66
2022/04/05 12:45:41;;;;;;;1.33;0.60;;;9.00;99.90;;;;;;8487879;27;20202;-64
2022/04/05 12:49:44;;;;;;;1.57;0.70;;;8.80;99.90;;;;;;8522939;27;20206;-66
2022/04/05 12:53:45;;;;;;;4.03;0.90;;;8.70;99.90;;;;;;8502266;27;20182;-66
2022/04/05 12:57:51;;;;;;;2.00;0.87;;;8.50;1.00;;;;;;8515646;27;20241;-63
2022/04/05 13:01:56;;;;;;;1.77;0.70;;;8.60;1.00;;;;;;8475058;27;20207;-68
2022/04/05 13:06:20;;;;;;;3.57;0.90;;;8.70;1.00;;;;;;8485401;27;20210;-66
2022/04/05 13:10:38;;;;;;;1.93;0.73;;;8.70;1.00;;;;;;8487366;27;20234;-66
2022/04/05 13:14:39;;;;;;;2.10;0.70;;;8.60;1.00;;;;;;8485160;27;20199;-66
2022/04/05 13:18:42;;;;;;;1.53;0.93;;;8.30;1.00;;;;;;8470156;28;20226;-67
2022/04/05 13:23:00;;;;;;;2.50;1.00;;;8.10;99.90;;;;;;8469163;27;20213;-64
2022/04/05 13:27:01;;;;;;;2.27;0.93;;;8.20;99.90;;;;;;8469574;28;20200;-64
2022/04/05 13:31:15;;;;;;;3.67;0.67;;;8.10;99.90;;;;;;8457484;28;20219;-67
2022/04/05 13:35:16;;;;;;;3.10;1.03;;;8.10;99.90;;;;;;8446785;28;20210;-64
2022/04/05 13:39:17;;;;;;;2.77;1.23;;;8.10;99.90;;;;;;8446977;28;20208;-66
2022/04/05 13:43:19;;;;;;;2.40;1.27;;;8.10;99.90;;;;;;8429503;28;20200;-67
2022/04/05 13:47:21;;;;;;;2.70;2.23;;;7.90;1.00;;;;;;8446704;28;20263;-65
2022/04/05 13:51:23;;;;;;;4.87;1.37;;;8.10;1.00;;;;;;8448091;28;20222;-65
2022/04/05 13:55:24;;;;;;;2.07;1.50;;;8.50;99.90;;;;;;8446255;28;20196;-68
2022/04/05 13:59:25;;;;;;;4.23;1.73;;;8.80;99.90;;;;;;8445588;28;20215;-67
2022/04/05 14:03:25;;;;;;;3.50;1.60;;;8.80;99.90;;;;;;8422668;27;20219;-63
2022/04/05 14:07:26;;;;;;;4.03;1.33;;;9.00;99.90;;;;;;8455667;28;20591;-62
2022/04/05 14:11:28;;;;;;;5.73;1.70;;;9.30;99.90;;;;;;8433158;28;20210;-63
2022/04/05 14:15:29;;;;;;;14.50;6.27;;;9.50;1.00;;;;;;8433543;28;20198;-63
2022/04/05 14:19:30;;;;;;;18.87;8.03;;;9.60;1.00;;;;;;8451175;28;20210;-63
2022/04/05 14:23:32;;;;;;;7.33;4.07;;;9.60;20.30;;;;;;8435697;28;20211;-64
2022/04/05 14:27:32;;;;;;;3.57;2.50;;;9.50;23.40;;;;;;8449358;28;20200;-64
2022/04/05 14:31:34;;;;;;;3.50;1.93;;;9.30;99.90;;;;;;8450669;28;20310;-63
2022/04/05 14:35:36;;;;;;;4.80;1.80;;;9.00;99.90;;;;;;8446333;28;20210;-63
2022/04/05 14:39:37;;;;;;;10.53;6.17;;;8.90;99.90;;;;;;8431945;28;20291;-64
2022/04/05 14:43:38;;;;;;;3.97;2.17;;;8.80;1.00;;;;;;8431781;28;20223;-62
2022/04/05 14:47:39;;;;;;;7.57;4.00;;;8.80;1.00;;;;;;8432540;28;20290;-63
2022/04/05 14:51:42;;;;;;;4.47;2.10;;;8.70;99.90;;;;;;8449098;28;20309;-63
2022/04/05 14:55:43;;;;;;;7.00;2.50;;;8.70;99.90;;;;;;8450239;28;20191;-63
2022/04/05 14:59:44;;;;;;;8.03;3.60;;;8.70;99.90;;;;;;8448360;28;20211;-65
2022/04/05 15:03:45;;;;;;;5.00;4.07;;;8.70;99.90;;;;;;8456987;28;20293;-63
2022/04/05 15:07:46;;;;;;;4.13;2.93;;;9.00;99.90;;;;;;8431307;28;20219;-62
2022/04/05 15:11:48;;;;;;;6.87;3.50;;;9.00;99.90;;;;;;8449866;28;20268;-64
2022/04/05 15:15:49;;;;;;;2.33;1.60;;;9.00;99.90;;;;;;8431801;28;20200;-64
2022/04/05 15:19:51;;;;;;;4.53;2.23;;;9.00;99.90;;;;;;8431564;28;20203;-64
2022/04/05 15:23:52;;;;;;;5.23;2.37;;;9.10;99.90;;;;;;8431003;28;20212;-63
2022/04/05 15:27:53;;;;;;;4.57;2.77;;;9.20;99.90;;;;;;8449883;28;20299;-63
2022/04/05 15:31:54;;;;;;;6.77;4.20;;;9.20;99.90;;;;;;8432177;28;20226;-65
2022/04/05 15:35:55;;;;;;;4.03;3.60;;;9.20;99.90;;;;;;8428028;28;20207;-66
2022/04/05 15:39:56;;;;;;;3.90;3.47;;;9.20;99.90;;;;;;8439334;28;20204;-63
2022/04/05 15:43:56;;;;;;;3.87;3.47;;;9.30;1.00;;;;;;8449984;28;20237;-65
2022/04/05 15:47:57;;;;;;;7.17;4.00;;;9.40;99.90;;;;;;8429933;28;20242;-65
2022/04/05 15:51:59;;;;;;;5.60;3.97;;;9.50;99.90;;;;;;8431272;28;20207;-63
2022/04/05 15:56:00;;;;;;;4.80;4.00;;;9.30;99.90;;;;;;8430384;28;20290;-63
2022/04/05 16:00:02;;;;;;;6.70;4.90;;;9.10;99.90;;;;;;8431023;28;20218;-63
2022/04/05 16:04:04;;;;;;;9.17;7.10;;;9.00;99.90;;;;;;8438608;28;20241;-63
2022/04/05 16:08:05;;;;;;;7.03;5.73;;;8.90;99.90;;;;;;8433145;28;20248;-64
2022/04/05 16:12:06;;;;;;;9.50;5.67;;;8.80;88.60;;;;;;8430758;28;20207;-61
2022/04/05 16:16:10;;;;;;;7.97;5.73;;;8.70;27.70;;;;;;8430305;28;20195;-63
2022/04/05 16:20:11;;;;;;;9.73;5.57;;;8.50;99.90;;;;;;8438928;28;20604;-65
2022/04/05 16:24:12;;;;;;;7.17;5.93;;;8.40;99.90;;;;;;8441060;28;20199;-65
2022/04/05 16:28:13;;;;;;;7.17;5.93;;;8.20;71.20;;;;;;8429182;28;20248;-64
2022/04/05 16:32:14;;;;;;;7.47;6.13;;;8.10;99.90;;;;;;8430555;28;20204;-65
2022/04/05 16:36:14;;;;;;;9.40;6.57;;;7.90;99.90;;;;;;8448589;28;20203;-65
2022/04/05 16:40:15;;;;;;;12.27;8.70;;;7.90;1.00;;;;;;8447997;28;20211;-64
2022/04/05 16:44:16;;;;;;;12.67;8.47;;;7.80;99.90;;;;;;8436261;28;20252;-64
2022/04/05 16:48:17;;;;;;;11.50;8.43;;;7.80;99.90;;;;;;8448955;28;20223;-65
2022/04/05 16:52:18;;;;;;;10.93;8.27;;;7.80;99.90;;;;;;8447739;28;20208;-65
2022/04/05 16:56:20;;;;;;;15.83;13.97;;;7.70;99.90;;;;;;8448383;28;20200;-66
2022/04/05 17:00:22;;;;;;;12.20;9.30;;;7.70;99.90;;;;;;8428955;28;20218;-66
2022/04/05 17:04:23;;;;;;;12.57;9.43;;;7.70;99.90;;;;;;8455292;27;20204;-64
2022/04/05 17:08:24;;;;;;;12.13;9.10;;;7.60;99.90;;;;;;8434046;28;20258;-64
2022/04/05 17:12:25;;;;;;;12.43;9.70;;;7.60;99.90;;;;;;8434706;28;20290;-66
2022/04/05 17:16:26;;;;;;;9.53;7.30;;;7.50;99.90;;;;;;8435590;28;20203;-65
2022/04/05 17:20:27;;;;;;;12.30;8.93;;;7.40;99.90;;;;;;8453233;28;20211;-65
2022/04/05 17:24:28;;;;;;;18.40;12.60;;;7.30;99.90;;;;;;8449141;28;20230;-64
2022/04/05 17:28:29;;;;;;;12.20;9.07;;;7.30;99.90;;;;;;8453138;28;20529;-66
2022/04/05 17:32:30;;;;;;;19.93;12.53;;;7.20;99.90;;;;;;8436398;28;20260;-66
2022/04/05 17:36:30;;;;;;;15.63;9.57;;;7.20;99.90;;;;;;8441205;28;20203;-66
2022/04/05 17:40:32;;;;;;;17.20;10.63;;;7.20;99.90;;;;;;8435456;28;20203;-65
2022/04/05 17:44:33;;;;;;;11.43;8.73;;;7.10;99.90;;;;;;8434276;28;20268;-65
2022/04/05 17:48:34;;;;;;;14.43;10.97;;;7.10;99.90;;;;;;8454369;28;20222;-65
2022/04/05 17:52:36;;;;;;;16.17;11.50;;;7.00;99.90;;;;;;8453374;28;20208;-65
2022/04/05 17:56:37;;;;;;;14.13;10.00;;;7.00;99.90;;;;;;8452360;28;20207;-65
2022/04/05 18:00:38;;;;;;;13.70;9.20;;;7.00;99.90;;;;;;8434211;28;20215;-65
2022/04/05 18:04:39;;;;;;;13.23;8.07;;;7.00;99.90;;;;;;8460603;28;20218;-65
2022/04/05 18:08:40;;;;;;;14.17;9.13;;;7.00;99.90;;;;;;8433364;28;20225;-66
2022/04/05 18:12:43;;;;;;;12.50;9.57;;;7.00;99.90;;;;;;8433984;28;20207;-66
2022/04/05 18:16:44;;;;;;;15.40;10.57;;;7.00;99.90;;;;;;8452070;28;20210;-67
2022/04/05 18:20:45;;;;;;;14.33;11.10;;;7.00;99.90;;;;;;8452285;28;20288;-66
2022/04/05 18:24:47;;;;;;;13.90;10.53;;;6.90;99.90;;;;;;8440750;28;20299;-65
2022/04/05 18:28:48;;;;;;;14.17;10.43;;;6.90;99.90;;;;;;8432583;28;20216;-65
2022/04/05 18:32:49;;;;;;;15.60;12.23;;;7.00;99.90;;;;;;8434960;28;20202;-65
2022/04/05 18:36:51;;;;;;;13.57;11.30;;;6.90;99.90;;;;;;8433925;28;20203;-65
2022/04/05 18:40:54;;;;;;;15.53;11.30;;;7.00;99.90;;;;;;8449357;28;20207;-65
2022/04/05 18:44:55;;;;;;;12.03;9.30;;;7.00;99.90;;;;;;8431635;28;20211;-65
2022/04/05 18:48:56;;;;;;;13.83;9.27;;;7.00;99.90;;;;;;8450832;28;20219;-67
2022/04/05 18:52:57;;;;;;;13.93;10.27;;;7.00;99.90;;;;;;8450250;28;20234;-66
2022/04/05 18:56:58;;;;;;;13.70;9.57;;;7.00;99.90;;;;;;8434171;28;20203;-65
2022/04/05 19:00:59;;;;;;;15.53;11.27;;;7.00;99.90;;;;;;8431708;28;20206;-65
2022/04/05 19:05:00;;;;;;;16.57;11.90;;;7.00;99.90;;;;;;8440201;28;20218;-64
2022/04/05 19:09:03;;;;;;;17.53;12.93;;;7.00;99.90;;;;;;8431345;28;20215;-65
2022/04/05 19:13:05;;;;;;;17.80;13.73;;;7.10;99.90;;;;;;8449362;28;20263;-65
2022/04/05 19:17:06;;;;;;;21.47;16.17;;;7.10;99.90;;;;;;8431512;28;20204;-65
2022/04/05 19:21:08;;;;;;;26.20;19.13;;;7.10;99.90;;;;;;8445503;28;20455;-65
2022/04/05 19:25:09;;;;;;;24.13;18.80;;;7.10;99.90;;;;;;8440355;28;20207;-67
2022/04/05 19:29:11;;;;;;;26.30;19.07;;;7.20;99.90;;;;;;8449570;28;20642;-65
2022/04/05 19:33:12;;;;;;;26.60;18.97;;;7.20;99.90;;;;;;8450761;28;20212;-65
2022/04/05 19:37:13;;;;;;;27.60;18.83;;;7.20;99.90;;;;;;8424261;28;20223;-65
2022/04/05 19:41:17;;;;;;;24.10;18.27;;;7.20;99.90;;;;;;8448599;28;20199;-64
2022/04/05 19:45:23;;;;;;;21.27;16.87;;;7.20;99.90;;;;;;8431701;28;20200;-65
2022/04/05 19:49:24;;;;;;;19.60;15.30;;;7.20;99.90;;;;;;8451045;28;20212;-64
2022/04/05 19:53:25;;;;;;;18.10;14.80;;;7.20;99.90;;;;;;8431899;28;20302;-66
2022/04/05 19:57:26;;;;;;;19.40;15.43;;;7.20;99.90;;;;;;8430292;28;20230;-66
2022/04/05 20:01:28;;;;;;;17.90;14.53;;;7.20;99.90;;;;;;8449797;28;20226;-65
2022/04/05 20:05:29;;;;;;;17.40;14.43;;;7.20;99.90;;;;;;8456948;27;20241;-64
2022/04/05 20:09:30;;;;;;;20.30;14.37;;;7.30;99.90;;;;;;8430558;28;20219;-64
2022/04/05 20:13:31;;;;;;;17.37;14.50;;;7.30;99.90;;;;;;8431123;28;20215;-67
2022/04/05 20:21:52;;;;;;;15.63;13.00;;;7.40;99.90;;;;;;8448274;28;20280;-65
2022/04/05 20:25:53;;;;;;;16.20;13.30;;;7.40;99.90;;;;;;8446983;28;20298;-65
2022/04/05 20:29:54;;;;;;;16.17;12.87;;;7.50;99.90;;;;;;8430040;28;20288;-64
2022/04/05 20:33:55;;;;;;;16.33;13.10;;;7.50;99.90;;;;;;8438374;28;20294;-63
2022/04/05 20:37:56;;;;;;;15.87;12.50;;;7.50;99.90;;;;;;8422828;28;20235;-64
2022/04/05 20:41:57;;;;;;;16.07;13.70;;;7.50;99.90;;;;;;8449668;28;20202;-64
2022/04/05 20:45:58;;;;;;;15.63;12.93;;;7.50;99.90;;;;;;8437422;28;20203;-64
2022/04/05 20:49:59;;;;;;;14.03;12.03;;;7.60;99.90;;;;;;8434851;28;20231;-66
2022/04/05 20:54:01;;;;;;;16.50;12.97;;;7.60;99.90;;;;;;8436274;28;20487;-64
2022/04/05 20:58:02;;;;;;;15.77;12.60;;;7.60;99.90;;;;;;8453224;28;20282;-64
2022/04/05 21:02:03;;;;;;;13.30;10.67;;;7.60;99.90;;;;;;8452091;28;20211;-64
2022/04/05 21:06:04;;;;;;;13.20;11.37;;;7.60;99.90;;;;;;8451342;28;20222;-65
2022/04/05 21:10:05;;;;;;;14.10;10.80;;;7.60;99.90;;;;;;8434943;28;20219;-64
2022/04/05 21:14:06;;;;;;;13.83;10.90;;;7.60;99.90;;;;;;8435521;28;20210;-66
2022/04/05 21:18:08;;;;;;;14.63;11.00;;;7.70;99.90;;;;;;8452353;28;20227;-65
2022/04/05 21:22:12;;;;;;;13.50;10.87;;;7.70;99.90;;;;;;8432551;28;20215;-66
2022/04/05 21:26:13;;;;;;;12.33;10.43;;;7.70;99.90;;;;;;8453801;28;20200;-67
2022/04/05 21:30:14;;;;;;;12.83;10.60;;;7.70;99.90;;;;;;8434987;28;20215;-65
2022/04/05 21:34:15;;;;;;;12.37;10.13;;;7.60;99.90;;;;;;8443091;27;20202;-66
2022/04/05 21:38:15;;;;;;;12.03;9.63;;;7.60;99.90;;;;;;8433096;28;20200;-65
2022/04/05 21:42:18;;;;;;;12.47;10.20;;;7.60;99.90;;;;;;8453343;28;20256;-65
2022/04/05 21:46:19;;;;;;;12.80;10.40;;;7.70;99.90;;;;;;8433987;28;20198;-64
2022/04/05 21:50:19;;;;;;;11.63;9.20;;;7.70;99.90;;;;;;8434086;28;20286;-64
2022/04/05 21:54:20;;;;;;;11.93;10.27;;;7.70;99.90;;;;;;8452743;28;20194;-63
2022/04/05 21:58:21;;;;;;;12.47;10.23;;;7.70;99.90;;;;;;8445496;28;20210;-66
2022/04/05 22:02:22;;;;;;;10.97;8.80;;;7.70;99.90;;;;;;8414069;28;20216;-64
2022/04/05 22:06:23;;;;;;;13.63;10.53;;;7.70;99.90;;;;;;8450003;28;20200;-64
2022/04/05 22:10:24;;;;;;;10.83;9.53;;;7.80;99.90;;;;;;8434750;28;20311;-62
2022/04/05 22:14:26;;;;;;;12.13;9.50;;;7.80;99.90;;;;;;8433561;28;20225;-64
2022/04/05 22:18:27;;;;;;;11.63;10.07;;;7.80;99.90;;;;;;8433223;28;20531;-64
2022/04/05 22:22:28;;;;;;;11.63;9.87;;;7.80;99.90;;;;;;8452288;28;20215;-65
2022/04/05 22:26:30;;;;;;;12.80;9.67;;;7.80;99.90;;;;;;8432796;28;20227;-64
2022/04/05 22:30:30;;;;;;;12.77;10.23;;;7.80;99.90;;;;;;8433347;28;20220;-66
2022/04/05 22:34:32;;;;;;;12.70;9.53;;;7.90;99.90;;;;;;8449747;28;20202;-65
2022/04/05 22:38:33;;;;;;;12.73;10.80;;;7.80;99.90;;;;;;8432821;28;20195;-65
2022/04/05 22:42:35;;;;;;;13.60;10.17;;;7.90;99.90;;;;;;8432938;28;20306;-65
2022/04/05 22:46:37;;;;;;;12.03;9.53;;;7.80;99.90;;;;;;8432441;28;20222;-63
2022/04/05 22:50:38;;;;;;;13.10;10.80;;;7.90;99.90;;;;;;8449494;28;20230;-66
2022/04/05 22:54:39;;;;;;;12.63;10.10;;;7.90;99.90;;;;;;8433093;28;20204;-65
2022/04/05 22:58:40;;;;;;;11.60;9.70;;;7.90;99.90;;;;;;8450090;28;20203;-63
2022/04/05 23:02:41;;;;;;;11.50;9.53;;;7.90;99.90;;;;;;8445744;28;20272;-67
2022/04/05 23:06:43;;;;;;;13.07;10.23;;;7.90;99.90;;;;;;8458020;27;20211;-64
2022/04/05 23:10:44;;;;;;;11.73;9.83;;;7.90;99.90;;;;;;8450488;28;20227;-67
2022/04/05 23:14:45;;;;;;;11.97;10.23;;;7.90;99.90;;;;;;8450097;28;20336;-66
2022/04/05 23:18:46;;;;;;;12.70;10.87;;;7.90;99.90;;;;;;8431693;28;20204;-66
2022/04/05 23:22:46;;;;;;;13.97;10.93;;;7.90;99.90;;;;;;8423403;28;20207;-63
2022/04/05 23:26:47;;;;;;;13.00;10.80;;;7.90;99.90;;;;;;8450300;28;20272;-65
2022/04/05 23:30:48;;;;;;;12.40;9.87;;;7.80;99.90;;;;;;8450466;28;20230;-66
2022/04/05 23:34:49;;;;;;;12.03;10.60;;;7.80;99.90;;;;;;8459159;28;20207;-65
2022/04/05 23:38:50;;;;;;;12.20;10.00;;;7.80;99.90;;;;;;8449186;28;20274;-65
2022/04/05 23:42:51;;;;;;;14.27;11.27;;;7.80;99.90;;;;;;8432097;28;20264;-65
2022/04/05 23:46:52;;;;;;;12.73;10.33;;;7.90;99.90;;;;;;8432339;28;20200;-66
2022/04/05 23:50:57;;;;;;;13.67;10.80;;;7.90;99.90;;;;;;8450766;28;20219;-65
2022/04/05 23:54:58;;;;;;;12.10;10.40;;;7.90;99.90;;;;;;8413677;28;20207;-67
2022/04/05 23:58:59;;;;;;;12.73;10.43;;;8.00;99.90;;;;;;8448416;28;20317;-65
